Airfield :
LOGIN :

Register | Disclaimer

   EN    FR    IT 

 










Legend :    VFR   Marginal VFR   IFR   Intensive IFR   Very Intensive IFR
Visi :
Ceiling :
>= 8 km
>= 3000ft
5 to 8 km
1000 to 3000 ft
1500m to 5 km
500 to 1000 ft
800 to 1500m
200 to 500 ft
< 800m
< 200 ft
Symbols :   Thunderstorms  Fog  Heavy snow  Heavy precipitations  Wind > 20 kt
SIGMETs :     Misc.  Thunderstorms  Icing  Turbulence  Mountain Waves  Volcanic Ashes







- Airport Elevation : 102 ft
- IATA code : CNG
- Download approach charts


LFBG - Cognac

CURRENT METAR :
  • 220600Z AUTO 26013KT 9999 FEW008 SCT016 BKN026 12/10 Q1022

EXPIRED METARs :
  • 220530Z AUTO 25014KT 5000 -DZ BR BKN005 OVC011 12/11 Q1022
  • 220500Z AUTO 25014KT 6000 -RADZ OVC009 12/11 Q1022
  • 220430Z AUTO 25013KT 9999 OVC011 13/10 Q1022
  • 220400Z AUTO 24013KT 9999 OVC011 12/10 Q1022
  • 220330Z AUTO 25014KT 9999 OVC012 12/10 Q1022

Expired Forecast.
No reported NOTAMs for that airfield.
1 SIGMET reported for the Bordeaux FIR (LFBB) :
 
Severe turbulence
LFBB SIGMET 1 VALID 220400/220700 LFPW
LFBB BORDEAUX FIR/UIR SEV TURB FCST WI N4545 E00300 - N4215 E00230 - N4230 E00130 - N4545 E00215 - N4545 E00300 SFC/FL080 STNR NC=



MET'MAP, your aeronautical weather chart ! - Copyright ORBIFLY December 2007 - Disclaimer

ORBIFLY MET'MAP TEAM :

Programming & Development : Alexandra Zaïnal
Concept & Development : Baudouin d'Aumeries
Co-Development & Prog : Marc-Olivier Méhu
Technical & hardware support : Manuel Goepfert

Contact : metmap@orbifly.com




SOURCES & CREDITS :

   NOAA